createdAt,value
2019-01-13T00:00:33.479Z,36.5
2019-01-13T00:01:34.843Z,36.9
2019-01-13T00:02:36.229Z,36.6
2019-01-13T00:03:37.604Z,36.5
2019-01-13T00:04:38.977Z,36.9
2019-01-13T00:05:40.351Z,36.8
2019-01-13T00:06:41.735Z,36.8
2019-01-13T00:07:43.146Z,37.2
2019-01-13T00:08:44.476Z,37.1
2019-01-13T00:09:45.851Z,37.2
2019-01-13T00:10:47.250Z,37.1
2019-01-13T00:11:48.661Z,37.2
2019-01-13T00:12:50.018Z,37.1
2019-01-13T00:13:51.378Z,37.1
2019-01-13T00:14:53.251Z,37.2
2019-01-13T00:15:54.094Z,37.2
2019-01-13T00:16:55.461Z,37.1
2019-01-13T00:17:56.822Z,37.2
2019-01-13T00:18:58.235Z,37.1
2019-01-13T00:19:59.646Z,37.0
2019-01-13T00:21:01.046Z,36.9
2019-01-13T00:22:02.445Z,37.1
2019-01-13T00:23:03.818Z,37.0
2019-01-13T00:24:05.200Z,37.4
2019-01-13T00:25:06.563Z,37.2
2019-01-13T00:26:07.929Z,37.2
2019-01-13T00:27:09.297Z,37.1
2019-01-13T00:28:10.683Z,37.3
2019-01-13T00:29:12.098Z,37.2
2019-01-13T00:30:19.094Z,37.2
2019-01-13T00:31:14.806Z,37.1
2019-01-13T00:32:16.166Z,37.3
2019-01-13T00:33:17.551Z,37.3
2019-01-13T00:34:18.928Z,37.2
2019-01-13T00:35:20.288Z,37.3
2019-01-13T00:36:21.654Z,37.4
2019-01-13T00:37:23.020Z,37.3
2019-01-13T00:38:24.442Z,37.2
2019-01-13T00:39:26.563Z,37.1
2019-01-13T00:40:27.952Z,37.2
2019-01-13T00:41:29.310Z,37.2
2019-01-13T00:42:30.682Z,37.3
2019-01-13T00:43:32.046Z,36.9
2019-01-13T00:44:33.419Z,37.2
2019-01-13T00:45:34.786Z,37.2
2019-01-13T00:46:36.176Z,37.0
2019-01-13T00:47:37.548Z,37.2
2019-01-13T00:48:38.911Z,37.1
2019-01-13T00:49:40.275Z,37.0
2019-01-13T00:50:41.649Z,37.1
2019-01-13T00:51:43.033Z,37.2
2019-01-13T00:52:44.661Z,37.2
2019-01-13T00:53:46.022Z,37.3
2019-01-13T00:54:47.387Z,37.2
2019-01-13T00:55:48.763Z,37.0
2019-01-13T00:56:50.894Z,36.8
2019-01-13T00:57:52.279Z,36.9
2019-01-13T00:58:53.675Z,37.1
2019-01-13T00:59:55.042Z,37.0
2019-01-13T01:00:56.417Z,36.8
2019-01-13T01:01:57.796Z,36.9
2019-01-13T01:02:59.174Z,37.1
2019-01-13T01:04:00.528Z,37.1
2019-01-13T01:05:01.903Z,37.1
2019-01-13T01:06:03.279Z,37.3
2019-01-13T01:07:04.645Z,36.9
2019-01-13T01:08:06.044Z,37.2
2019-01-13T01:09:07.410Z,37.3
2019-01-13T01:10:08.804Z,37.2
2019-01-13T01:11:10.326Z,37.1
2019-01-13T01:12:11.725Z,37.1
2019-01-13T01:13:13.094Z,37.2
2019-01-13T01:14:14.508Z,37.3
2019-01-13T01:15:15.889Z,37.3
2019-01-13T01:16:17.263Z,37.4
2019-01-13T01:17:18.647Z,37.3
2019-01-13T01:18:19.993Z,37.4
2019-01-13T01:19:21.370Z,37.4
2019-01-13T01:20:22.742Z,37.3
2019-01-13T01:21:24.124Z,37.3
2019-01-13T01:22:25.488Z,37.3
2019-01-13T01:23:26.870Z,37.3
2019-01-13T01:24:28.249Z,37.4
2019-01-13T01:25:29.618Z,37.1
2019-01-13T01:26:30.993Z,37.2
2019-01-13T01:27:32.371Z,37.3
2019-01-13T01:28:33.736Z,37.3
2019-01-13T01:29:35.102Z,37.3
2019-01-13T01:30:36.469Z,37.1
2019-01-13T01:31:37.857Z,37.3
2019-01-13T01:32:39.226Z,37.1
2019-01-13T01:33:40.604Z,37.5
2019-01-13T01:34:41.971Z,37.3
2019-01-13T01:35:43.963Z,37.2
2019-01-13T01:36:45.127Z,37.2
2019-01-13T01:37:46.475Z,37.5
2019-01-13T01:38:47.852Z,37.5
2019-01-13T01:39:49.222Z,37.5
2019-01-13T01:40:50.585Z,37.5
2019-01-13T01:41:51.959Z,37.4
2019-01-13T01:42:53.323Z,37.5
2019-01-13T01:43:54.687Z,37.4
2019-01-13T01:44:56.047Z,37.4
2019-01-13T01:45:57.422Z,37.3
2019-01-13T01:46:58.803Z,37.5
2019-01-13T01:48:00.177Z,37.6
2019-01-13T01:49:01.553Z,37.4
2019-01-13T01:50:02.912Z,37.5
2019-01-13T01:51:04.320Z,37.7
2019-01-13T01:52:05.686Z,37.6
2019-01-13T01:53:07.075Z,37.7
2019-01-13T01:54:08.446Z,37.4
2019-01-13T01:55:09.864Z,37.3
2019-01-13T01:56:11.259Z,37.7
2019-01-13T01:57:12.629Z,37.6
2019-01-13T01:58:14.006Z,37.5
2019-01-13T01:59:15.389Z,37.7
2019-01-13T02:00:16.743Z,37.6
2019-01-13T02:01:19.082Z,37.6
2019-01-13T02:02:20.443Z,37.7
2019-01-13T02:03:21.821Z,37.8
2019-01-13T02:04:23.224Z,37.4
2019-01-13T02:05:24.552Z,37.7
2019-01-13T02:06:25.914Z,37.7
2019-01-13T02:07:27.296Z,37.5
2019-01-13T02:08:28.685Z,37.5
2019-01-13T02:09:29.998Z,37.6
2019-01-13T02:10:32.289Z,37.7
2019-01-13T02:11:34.061Z,37.6
2019-01-13T02:12:35.426Z,37.8
2019-01-13T02:13:36.797Z,37.9
2019-01-13T02:14:38.166Z,37.8
2019-01-13T02:15:39.537Z,37.4
2019-01-13T02:16:41.739Z,37.8
2019-01-13T02:17:43.106Z,37.4
2019-01-13T02:18:44.493Z,37.7
2019-01-13T02:19:45.855Z,37.6
2019-01-13T02:20:47.232Z,37.4
2019-01-13T02:21:48.633Z,37.8
2019-01-13T02:22:49.999Z,37.7
2019-01-13T02:23:51.375Z,37.6
2019-01-13T02:24:52.763Z,37.6
2019-01-13T02:25:54.136Z,37.8
2019-01-13T02:26:55.503Z,37.6
2019-01-13T02:27:56.907Z,37.8
2019-01-13T02:28:58.279Z,37.8
2019-01-13T02:29:59.651Z,37.6
2019-01-13T02:31:01.025Z,38.1
2019-01-13T02:32:02.410Z,38.1
2019-01-13T02:33:03.798Z,37.9
2019-01-13T02:34:05.162Z,38.1
2019-01-13T02:35:06.564Z,37.9
2019-01-13T02:36:07.939Z,38.1
2019-01-13T02:37:09.296Z,37.9
2019-01-13T02:38:10.677Z,38.2
2019-01-13T02:39:12.033Z,37.9
2019-01-13T02:40:13.485Z,38.0
2019-01-13T02:41:14.854Z,38.1
2019-01-13T02:42:16.224Z,37.9
2019-01-13T02:43:17.582Z,37.9
2019-01-13T02:44:18.958Z,37.9
2019-01-13T02:45:20.326Z,38.0
2019-01-13T02:46:21.731Z,38.0
2019-01-13T02:47:23.106Z,38.0
2019-01-13T02:48:24.473Z,38.2
2019-01-13T02:49:25.837Z,38.0
2019-01-13T02:50:27.207Z,37.9
2019-01-13T02:51:28.606Z,38.1
2019-01-13T02:52:29.979Z,38.1
2019-01-13T02:53:31.347Z,38.0
2019-01-13T02:54:32.707Z,38.2
2019-01-13T02:55:34.078Z,38.1
2019-01-13T02:56:35.442Z,38.0
2019-01-13T02:57:36.817Z,38.1
2019-01-13T02:58:38.181Z,38.1
2019-01-13T02:59:39.609Z,38.1
2019-01-13T03:00:40.983Z,38.0
2019-01-13T03:01:42.363Z,38.1
2019-01-13T03:02:43.731Z,38.2
2019-01-13T03:03:45.085Z,38.0
2019-01-13T03:04:46.470Z,38.3
2019-01-13T03:05:47.865Z,38.3
2019-01-13T03:06:49.323Z,38.0
2019-01-13T03:07:50.689Z,38.0
2019-01-13T03:08:52.046Z,38.3
2019-01-13T03:09:53.412Z,38.3
2019-01-13T03:10:54.773Z,38.3
2019-01-13T03:11:56.139Z,38.1
2019-01-13T03:12:57.516Z,38.1
2019-01-13T03:13:58.887Z,38.1
2019-01-13T03:15:00.288Z,38.1
2019-01-13T03:16:01.640Z,38.0
2019-01-13T03:17:03.036Z,38.1
2019-01-13T03:18:04.402Z,38.1
2019-01-13T03:19:05.766Z,38.3
2019-01-13T03:20:07.142Z,38.0
2019-01-13T03:21:08.520Z,38.3
2019-01-13T03:22:09.898Z,38.1
2019-01-13T03:23:11.259Z,38.0
2019-01-13T03:24:12.630Z,38.1
2019-01-13T03:25:14.026Z,38.2
2019-01-13T03:26:15.413Z,38.0
2019-01-13T03:27:16.801Z,38.0
2019-01-13T03:28:18.225Z,38.2
2019-01-13T03:29:19.584Z,38.0
2019-01-13T03:30:20.964Z,38.1
2019-01-13T03:31:22.336Z,38.3
2019-01-13T03:32:23.686Z,38.2
2019-01-13T03:33:25.059Z,38.1
2019-01-13T03:34:26.426Z,38.4
2019-01-13T03:35:27.791Z,38.3
2019-01-13T03:36:29.188Z,38.3
2019-01-13T03:37:30.552Z,38.3
2019-01-13T03:38:31.911Z,38.2
2019-01-13T03:39:33.278Z,38.3
2019-01-13T03:40:34.649Z,38.3
2019-01-13T03:41:36.010Z,38.2
2019-01-13T03:42:37.390Z,38.2
2019-01-13T03:43:38.747Z,38.1
2019-01-13T03:44:40.125Z,38.4
2019-01-13T03:45:41.515Z,38.3
2019-01-13T03:46:42.878Z,38.2
2019-01-13T03:47:44.250Z,38.6
2019-01-13T03:48:45.619Z,38.6
2019-01-13T03:49:46.990Z,38.5
2019-01-13T03:50:48.362Z,38.5
2019-01-13T03:51:49.732Z,38.3
2019-01-13T03:52:53.151Z,38.6
2019-01-13T03:53:52.431Z,38.0
2019-01-13T03:54:53.798Z,38.5
2019-01-13T03:55:55.168Z,38.5
2019-01-13T03:56:56.785Z,38.4
2019-01-13T03:57:58.712Z,38.1
2019-01-13T03:59:00.090Z,38.5
2019-01-13T04:00:01.480Z,38.5
2019-01-13T04:01:02.853Z,38.4
2019-01-13T04:02:04.233Z,38.6
2019-01-13T04:03:05.588Z,38.4
2019-01-13T04:04:06.948Z,38.6
2019-01-13T04:05:08.319Z,38.1
2019-01-13T04:06:09.687Z,38.5
2019-01-13T04:07:11.068Z,38.5
2019-01-13T04:08:12.425Z,38.6
2019-01-13T04:09:13.807Z,38.6
2019-01-13T04:10:15.163Z,38.4
2019-01-13T04:11:16.541Z,38.4
2019-01-13T04:12:17.921Z,38.3
2019-01-13T04:13:19.322Z,38.3
2019-01-13T04:14:20.676Z,38.5
2019-01-13T04:15:22.075Z,38.1
2019-01-13T04:16:23.991Z,38.5
2019-01-13T04:17:25.364Z,38.3
2019-01-13T04:18:26.731Z,38.5
2019-01-13T04:19:28.116Z,38.4
2019-01-13T04:20:29.495Z,38.5
2019-01-13T04:21:30.865Z,38.5
2019-01-13T04:22:32.232Z,38.4
2019-01-13T04:23:33.704Z,38.5
2019-01-13T04:24:35.071Z,38.4
2019-01-13T04:25:36.443Z,38.4
2019-01-13T04:26:37.807Z,38.4
2019-01-13T04:27:39.180Z,38.4
2019-01-13T04:28:40.546Z,38.5
2019-01-13T04:29:41.913Z,38.5
2019-01-13T04:30:43.285Z,38.2
2019-01-13T04:31:44.662Z,38.2
2019-01-13T04:32:46.088Z,38.2
2019-01-13T04:33:47.418Z,38.4
2019-01-13T04:34:48.786Z,38.5
2019-01-13T04:35:50.156Z,38.4
2019-01-13T04:36:51.525Z,38.2
2019-01-13T04:37:52.915Z,38.4
2019-01-13T04:38:54.263Z,38.6
2019-01-13T04:39:55.632Z,38.4
2019-01-13T04:40:57.038Z,38.1
2019-01-13T04:41:58.496Z,38.2
2019-01-13T04:42:59.854Z,38.3
2019-01-13T04:44:01.223Z,38.2
2019-01-13T04:45:02.593Z,38.2
2019-01-13T04:46:03.965Z,38.5
2019-01-13T04:47:05.331Z,38.3
2019-01-13T04:48:06.694Z,38.4
2019-01-13T04:49:08.065Z,38.3
2019-01-13T04:50:09.424Z,38.5
2019-01-13T04:51:10.795Z,38.4
2019-01-13T04:52:12.153Z,38.1
2019-01-13T04:53:14.499Z,38.3
2019-01-13T04:54:15.882Z,38.3
2019-01-13T04:55:19.356Z,38.1
2019-01-13T04:56:19.747Z,38.4
2019-01-13T04:57:21.128Z,38.5
2019-01-13T04:58:22.528Z,38.5
2019-01-13T04:59:23.888Z,38.6
2019-01-13T05:00:25.806Z,38.9
2019-01-13T05:01:34.175Z,38.7
2019-01-13T05:02:29.769Z,39.1
2019-01-13T05:03:31.134Z,38.8
2019-01-13T05:04:32.501Z,38.9
2019-01-13T05:05:33.877Z,39.0
2019-01-13T05:06:35.239Z,39.1
2019-01-13T05:07:36.605Z,39.3
2019-01-13T05:08:37.989Z,39.3
2019-01-13T05:09:39.364Z,38.9
2019-01-13T05:10:40.733Z,39.3
2019-01-13T05:11:42.107Z,39.1
2019-01-13T05:12:43.467Z,38.9
2019-01-13T05:13:44.837Z,39.2
2019-01-13T05:14:46.199Z,39.1
2019-01-13T05:15:47.565Z,38.8
2019-01-13T05:16:48.938Z,38.9
2019-01-13T05:17:50.308Z,39.1
2019-01-13T05:18:51.666Z,39.2
2019-01-13T05:19:53.031Z,39.3
2019-01-13T05:20:54.396Z,39.3
2019-01-13T05:21:55.755Z,39.2
2019-01-13T05:22:57.123Z,39.2
2019-01-13T05:23:58.493Z,38.9
2019-01-13T05:24:59.857Z,39.2
2019-01-13T05:26:01.230Z,39.3
2019-01-13T05:27:02.588Z,39.3
2019-01-13T05:28:03.951Z,39.4
2019-01-13T05:29:05.321Z,39.3
2019-01-13T05:30:06.682Z,39.1
2019-01-13T05:31:08.051Z,39.2
2019-01-13T05:32:09.417Z,39.1
2019-01-13T05:33:10.781Z,39.1
2019-01-13T05:34:12.149Z,39.3
2019-01-13T05:35:13.513Z,39.3
2019-01-13T05:36:14.875Z,39.3
2019-01-13T05:37:16.240Z,39.3
2019-01-13T05:38:17.616Z,39.6
2019-01-13T05:39:18.988Z,39.3
2019-01-13T05:40:20.348Z,39.1
2019-01-13T05:41:21.714Z,39.2
2019-01-13T05:42:23.084Z,39.4
2019-01-13T05:43:24.450Z,39.5
2019-01-13T05:44:25.821Z,39.3
2019-01-13T05:45:27.202Z,39.4
2019-01-13T05:46:28.598Z,38.9
2019-01-13T05:47:29.958Z,39.4
2019-01-13T05:48:31.329Z,38.9
2019-01-13T05:49:32.709Z,38.9
2019-01-13T05:50:34.080Z,38.9
2019-01-13T05:51:36.339Z,39.0
2019-01-13T05:52:37.702Z,38.8
2019-01-13T05:53:39.083Z,38.7
2019-01-13T05:54:41.316Z,39.0
2019-01-13T05:55:42.678Z,39.3
2019-01-13T05:56:44.047Z,39.1
2019-01-13T05:57:45.412Z,39.2
2019-01-13T05:58:46.778Z,39.3
2019-01-13T05:59:48.144Z,39.5
2019-01-13T06:00:49.629Z,38.9
2019-01-13T06:01:50.994Z,38.9
2019-01-13T06:02:52.364Z,38.9
2019-01-13T06:03:53.727Z,38.9
2019-01-13T06:04:55.090Z,38.9
2019-01-13T06:05:56.475Z,38.9
2019-01-13T06:06:57.833Z,38.9
2019-01-13T06:07:59.202Z,38.8
2019-01-13T06:09:00.572Z,38.8
2019-01-13T06:10:01.938Z,38.9
2019-01-13T06:11:03.314Z,39.4
2019-01-13T06:12:04.672Z,39.1
2019-01-13T06:13:06.059Z,38.9
2019-01-13T06:14:07.405Z,38.9
2019-01-13T06:15:08.795Z,39.3
2019-01-13T06:16:10.163Z,38.9
2019-01-13T06:17:11.520Z,39.0
2019-01-13T06:18:12.894Z,39.5
2019-01-13T06:19:14.251Z,39.0
2019-01-13T06:20:16.445Z,39.0
2019-01-13T06:21:17.810Z,39.0
2019-01-13T06:22:19.183Z,38.9
2019-01-13T06:23:20.556Z,38.9
2019-01-13T06:24:21.911Z,38.9
2019-01-13T06:25:24.056Z,38.9
2019-01-13T06:26:25.414Z,38.8
2019-01-13T06:27:26.781Z,38.8
2019-01-13T06:28:28.152Z,39.1
2019-01-13T06:29:29.538Z,38.9
2019-01-13T06:30:31.561Z,39.2
2019-01-13T06:31:32.941Z,38.9
2019-01-13T06:32:34.877Z,38.6
2019-01-13T06:33:36.952Z,38.8
2019-01-13T06:34:38.319Z,38.8
2019-01-13T06:35:39.701Z,39.4
2019-01-13T06:36:41.069Z,38.8
2019-01-13T06:37:53.394Z,38.8
2019-01-13T06:38:54.262Z,38.9
2019-01-13T06:39:55.630Z,38.9
2019-01-13T06:40:57.000Z,39.0
2019-01-13T06:41:58.370Z,38.9
2019-01-13T06:42:59.739Z,38.9
2019-01-13T06:44:01.105Z,38.9
2019-01-13T06:45:02.467Z,38.9
2019-01-13T06:46:03.834Z,38.8
2019-01-13T06:47:05.193Z,38.9
2019-01-13T06:48:06.561Z,38.9
2019-01-13T06:49:07.926Z,38.8
2019-01-13T06:50:09.332Z,38.8
2019-01-13T06:51:10.662Z,38.8
2019-01-13T06:52:12.029Z,38.9
2019-01-13T06:53:13.393Z,38.9
2019-01-13T06:54:14.756Z,38.9
2019-01-13T06:55:16.126Z,38.8
2019-01-13T06:56:17.493Z,38.8
2019-01-13T06:57:18.859Z,38.9
2019-01-13T06:58:20.237Z,38.9
2019-01-13T06:59:21.590Z,38.9
2019-01-13T07:00:22.958Z,38.8
2019-01-13T07:01:24.328Z,38.8
2019-01-13T07:02:25.690Z,38.8
2019-01-13T07:03:27.054Z,38.9
2019-01-13T07:04:28.418Z,38.9
2019-01-13T07:05:29.789Z,38.8
2019-01-13T07:06:31.146Z,38.9
2019-01-13T07:07:32.509Z,38.9
2019-01-13T07:08:33.886Z,38.9
2019-01-13T07:09:35.240Z,38.9
2019-01-13T07:10:36.629Z,38.8
2019-01-13T07:11:38.002Z,38.9
2019-01-13T07:12:39.365Z,39.0
2019-01-13T07:13:40.725Z,38.8
2019-01-13T07:14:42.091Z,38.8
2019-01-13T07:15:43.453Z,38.9
2019-01-13T07:16:44.825Z,38.9
2019-01-13T07:17:46.191Z,38.8
2019-01-13T07:18:47.561Z,38.9
2019-01-13T07:19:48.927Z,39.0
2019-01-13T07:20:50.286Z,38.8
2019-01-13T07:21:51.646Z,38.8
2019-01-13T07:22:53.010Z,38.9
2019-01-13T07:23:54.375Z,38.8
2019-01-13T07:24:55.746Z,38.9
2019-01-13T07:25:57.107Z,38.8
2019-01-13T07:26:58.481Z,38.9
2019-01-13T07:27:59.844Z,39.0
2019-01-13T07:29:01.218Z,38.8
2019-01-13T07:30:02.586Z,38.8
2019-01-13T07:31:03.953Z,38.9
2019-01-13T07:32:10.695Z,38.9
2019-01-13T07:33:06.645Z,38.7
2019-01-13T07:34:08.016Z,38.9
2019-01-13T07:35:09.374Z,38.8
2019-01-13T07:36:10.736Z,38.9
2019-01-13T07:37:12.103Z,38.8
2019-01-13T07:38:13.477Z,38.9
2019-01-13T07:39:14.845Z,39.0
2019-01-13T07:40:16.210Z,38.8
2019-01-13T07:41:17.572Z,38.8
2019-01-13T07:42:18.944Z,39.0
2019-01-13T07:43:20.316Z,38.9
2019-01-13T07:44:21.674Z,38.8
2019-01-13T07:45:23.605Z,38.8
2019-01-13T07:46:24.973Z,38.8
2019-01-13T07:47:26.341Z,38.9
2019-01-13T07:48:27.726Z,39.1
2019-01-13T07:49:29.084Z,38.7
2019-01-13T07:50:30.450Z,38.9
2019-01-13T07:51:31.818Z,38.9
2019-01-13T07:52:33.187Z,38.9
2019-01-13T07:53:34.551Z,39.0
2019-01-13T07:54:35.917Z,39.0
2019-01-13T07:55:37.297Z,38.9
2019-01-13T07:56:38.655Z,38.8
2019-01-13T07:57:40.017Z,38.9
2019-01-13T07:58:41.376Z,38.8
2019-01-13T07:59:42.742Z,38.8
2019-01-13T08:00:44.113Z,38.6
2019-01-13T08:01:45.473Z,39.1
2019-01-13T08:02:46.844Z,38.9
2019-01-13T08:03:48.204Z,38.9
2019-01-13T08:04:49.566Z,38.9
2019-01-13T08:05:50.932Z,38.9
2019-01-13T08:06:52.294Z,38.8
2019-01-13T08:07:53.664Z,39.0
2019-01-13T08:08:55.030Z,38.9
2019-01-13T08:09:56.401Z,38.8
2019-01-13T08:10:57.757Z,38.9
2019-01-13T08:11:59.122Z,38.8
2019-01-13T08:13:00.484Z,38.7
2019-01-13T08:14:01.847Z,38.9
2019-01-13T08:15:03.231Z,39.1
2019-01-13T08:16:04.586Z,38.8
2019-01-13T08:17:05.973Z,39.0
2019-01-13T08:18:07.338Z,38.9
2019-01-13T08:19:08.701Z,38.8
2019-01-13T08:20:10.067Z,38.8
2019-01-13T08:21:11.434Z,39.0
2019-01-13T08:22:12.799Z,38.8
2019-01-13T08:23:14.174Z,38.8
2019-01-13T08:24:15.538Z,38.9
2019-01-13T08:25:16.909Z,38.9
2019-01-13T08:26:18.279Z,38.8
2019-01-13T08:27:19.639Z,38.9
2019-01-13T08:28:21.049Z,38.9
2019-01-13T08:29:22.410Z,39.1
2019-01-13T08:30:23.775Z,38.8
2019-01-13T08:31:25.141Z,39.0
2019-01-13T08:32:26.500Z,39.0
2019-01-13T08:33:27.912Z,38.8
2019-01-13T08:34:29.286Z,38.8
2019-01-13T08:35:30.648Z,38.9
2019-01-13T08:36:32.011Z,38.9
2019-01-13T08:37:33.379Z,38.9
2019-01-13T08:38:34.740Z,39.0
2019-01-13T08:39:36.108Z,38.9
2019-01-13T08:40:37.469Z,38.9
2019-01-13T08:41:38.836Z,39.1
2019-01-13T08:42:40.196Z,38.8
2019-01-13T08:43:41.564Z,38.9
2019-01-13T08:44:42.929Z,38.9
2019-01-13T08:45:50.069Z,38.8
2019-01-13T08:46:45.639Z,38.9
2019-01-13T08:47:47.016Z,38.9
2019-01-13T08:48:48.375Z,38.8
2019-01-13T08:49:49.739Z,38.8
2019-01-13T08:50:51.103Z,38.9
2019-01-13T08:51:52.464Z,38.9
2019-01-13T08:52:53.876Z,38.9
2019-01-13T08:53:55.244Z,39.0
2019-01-13T08:54:56.617Z,38.9
2019-01-13T08:55:57.976Z,38.9
2019-01-13T08:56:59.338Z,38.8
2019-01-13T08:58:00.703Z,38.9
2019-01-13T08:59:02.069Z,38.8
2019-01-13T09:00:03.432Z,38.9
2019-01-13T09:01:04.797Z,38.8
2019-01-13T09:02:06.163Z,38.9
2019-01-13T09:03:07.533Z,38.8
2019-01-13T09:04:08.901Z,38.9
2019-01-13T09:05:10.265Z,39.0
2019-01-13T09:06:11.630Z,38.8
2019-01-13T09:07:12.995Z,39.0
2019-01-13T09:08:14.361Z,38.9
2019-01-13T09:09:15.738Z,38.8
2019-01-13T09:10:17.103Z,38.9
2019-01-13T09:11:18.472Z,38.9
2019-01-13T09:12:19.829Z,38.8
2019-01-13T09:13:21.204Z,38.9
2019-01-13T09:14:22.585Z,38.8
2019-01-13T09:15:23.934Z,38.9
2019-01-13T09:16:25.294Z,38.9
2019-01-13T09:17:26.660Z,38.8
2019-01-13T09:18:28.031Z,38.8
2019-01-13T09:19:29.386Z,38.7
2019-01-13T09:20:30.754Z,38.8
2019-01-13T09:21:32.118Z,38.8
2019-01-13T09:22:33.481Z,39.6
2019-01-13T09:23:34.852Z,38.9
2019-01-13T09:24:36.219Z,38.8
2019-01-13T09:25:37.593Z,38.9
2019-01-13T09:26:39.006Z,38.9
2019-01-13T09:27:40.313Z,38.7
2019-01-13T09:28:41.683Z,38.8
2019-01-13T09:29:43.048Z,38.9
2019-01-13T09:30:44.422Z,38.9
2019-01-13T09:31:45.789Z,38.8
2019-01-13T09:32:47.166Z,38.9
2019-01-13T09:33:48.535Z,38.9
2019-01-13T09:34:49.909Z,38.9
2019-01-13T09:35:51.267Z,38.9
2019-01-13T09:36:52.633Z,38.9
2019-01-13T09:37:54.007Z,38.9
2019-01-13T09:38:55.368Z,38.9
2019-01-13T09:39:56.735Z,38.9
2019-01-13T09:40:58.106Z,38.9
2019-01-13T09:41:59.484Z,39.0
2019-01-13T09:43:00.863Z,39.0
2019-01-13T09:44:02.225Z,38.9
2019-01-13T09:45:03.587Z,38.7
2019-01-13T09:46:04.946Z,38.8
2019-01-13T09:47:06.311Z,38.8
2019-01-13T09:48:07.679Z,39.0
2019-01-13T09:49:09.048Z,39.3
2019-01-13T09:50:10.418Z,39.0
2019-01-13T09:51:11.781Z,38.9
2019-01-13T09:52:13.145Z,38.8
2019-01-13T09:53:14.511Z,38.8
2019-01-13T09:54:15.872Z,38.8
2019-01-13T09:55:17.248Z,38.7
2019-01-13T09:56:18.614Z,39.0
2019-01-13T09:57:19.979Z,38.9
2019-01-13T09:58:21.910Z,39.1
2019-01-13T09:59:23.276Z,39.1
2019-01-13T10:00:24.649Z,38.8
2019-01-13T10:01:26.022Z,38.8
2019-01-13T10:02:27.381Z,38.9
2019-01-13T10:03:28.748Z,38.7
2019-01-13T10:04:30.120Z,38.8
2019-01-13T10:05:31.485Z,38.9
2019-01-13T10:06:33.340Z,38.8
2019-01-13T10:07:34.705Z,38.9
2019-01-13T10:08:36.072Z,38.9
2019-01-13T10:09:37.431Z,38.9
2019-01-13T10:10:38.796Z,39.0
2019-01-13T10:11:40.164Z,38.8
2019-01-13T10:12:41.544Z,38.9
2019-01-13T10:13:42.903Z,38.9
2019-01-13T10:14:44.272Z,38.8
2019-01-13T10:15:45.790Z,38.9
2019-01-13T10:16:46.971Z,38.8
2019-01-13T10:17:48.332Z,38.9
2019-01-13T10:18:49.738Z,39.6
2019-01-13T10:19:51.105Z,39.0
2019-01-13T10:20:52.479Z,39.0
2019-01-13T10:21:53.852Z,38.9
2019-01-13T10:22:55.217Z,39.0
2019-01-13T10:23:56.580Z,38.9
2019-01-13T10:24:57.948Z,39.5
2019-01-13T10:25:59.312Z,39.0
2019-01-13T10:27:00.673Z,39.0
2019-01-13T10:28:02.046Z,38.9
2019-01-13T10:29:03.429Z,39.0
2019-01-13T10:30:04.792Z,39.1
2019-01-13T10:31:06.156Z,38.8
2019-01-13T10:32:07.525Z,38.9
2019-01-13T10:33:08.894Z,38.9
2019-01-13T10:34:10.264Z,38.8
2019-01-13T10:35:11.621Z,38.9
2019-01-13T10:36:12.983Z,38.8
2019-01-13T10:37:14.349Z,38.9
2019-01-13T10:38:15.718Z,38.8
2019-01-13T10:39:17.092Z,38.9
2019-01-13T10:40:18.454Z,38.9
2019-01-13T10:41:19.825Z,38.9
2019-01-13T10:42:21.191Z,38.8
2019-01-13T10:43:22.562Z,38.9
2019-01-13T10:44:23.927Z,39.0
2019-01-13T10:45:25.289Z,38.9
2019-01-13T10:46:26.657Z,38.9
2019-01-13T10:47:28.025Z,38.8
2019-01-13T10:48:30.393Z,38.9
2019-01-13T10:49:30.721Z,39.0
2019-01-13T10:50:32.091Z,38.9
2019-01-13T10:51:33.470Z,38.8
2019-01-13T10:52:34.834Z,38.8
2019-01-13T10:53:36.201Z,38.8
2019-01-13T10:54:37.572Z,38.8
2019-01-13T10:55:38.947Z,38.9
2019-01-13T10:56:40.301Z,38.9
2019-01-13T10:57:41.672Z,38.9
2019-01-13T10:58:43.038Z,38.9
2019-01-13T10:59:44.404Z,39.0
2019-01-13T11:00:45.772Z,39.4
2019-01-13T11:01:47.141Z,39.5
2019-01-13T11:02:48.501Z,39.5
2019-01-13T11:03:49.865Z,39.5
2019-01-13T11:04:51.249Z,39.3
2019-01-13T11:05:52.622Z,39.1
2019-01-13T11:06:53.988Z,39.1
2019-01-13T11:07:55.358Z,39.3
2019-01-13T11:08:56.746Z,39.1
2019-01-13T11:09:58.094Z,39.4
2019-01-13T11:10:59.454Z,38.8
2019-01-13T11:12:00.820Z,39.5
2019-01-13T11:13:02.190Z,39.0
2019-01-13T11:14:03.553Z,39.5
2019-01-13T11:15:04.922Z,39.4
2019-01-13T11:16:06.299Z,39.1
2019-01-13T11:17:07.680Z,38.9
2019-01-13T11:18:09.044Z,38.9
2019-01-13T11:19:10.408Z,39.0
2019-01-13T11:20:11.770Z,38.9
2019-01-13T11:21:13.134Z,39.0
2019-01-13T11:22:14.507Z,38.9
2019-01-13T11:23:15.871Z,39.0
2019-01-13T11:24:17.241Z,39.4
2019-01-13T11:25:18.619Z,38.9
2019-01-13T11:26:19.982Z,39.5
2019-01-13T11:27:21.349Z,39.3
2019-01-13T11:28:22.712Z,39.5
2019-01-13T11:29:24.075Z,39.3
2019-01-13T11:30:25.459Z,39.3
2019-01-13T11:31:26.821Z,39.3
2019-01-13T11:32:28.186Z,39.2
2019-01-13T11:33:29.555Z,39.4
2019-01-13T11:34:30.922Z,39.3
2019-01-13T11:35:32.291Z,39.4
2019-01-13T11:36:33.656Z,39.1
2019-01-13T11:37:35.031Z,39.1
2019-01-13T11:38:36.390Z,39.3
2019-01-13T11:39:37.755Z,39.5
2019-01-13T11:40:39.123Z,39.6
2019-01-13T11:41:40.495Z,39.1
2019-01-13T11:42:41.861Z,39.4
2019-01-13T11:43:43.238Z,39.1
2019-01-13T11:44:44.610Z,39.1
2019-01-13T11:45:45.970Z,39.3
2019-01-13T11:46:47.330Z,39.4
2019-01-13T11:47:48.713Z,39.2
2019-01-13T11:48:50.081Z,39.3
2019-01-13T11:49:51.454Z,39.3
2019-01-13T11:50:52.825Z,39.5
2019-01-13T11:51:54.190Z,39.5
2019-01-13T11:52:55.552Z,39.4
2019-01-13T11:53:56.927Z,39.4
2019-01-13T11:54:58.284Z,39.2
2019-01-13T11:55:59.669Z,39.5
2019-01-13T11:57:01.048Z,39.1
2019-01-13T11:58:02.401Z,39.3
2019-01-13T11:59:03.762Z,39.3
2019-01-13T12:00:05.140Z,39.1
2019-01-13T12:01:06.503Z,39.3
2019-01-13T12:02:07.867Z,39.4
2019-01-13T12:03:16.365Z,39.4
2019-01-13T12:04:10.559Z,39.3
2019-01-13T12:05:11.957Z,39.2
2019-01-13T12:06:13.300Z,39.3
2019-01-13T12:07:14.695Z,39.1
2019-01-13T12:08:16.067Z,39.2
2019-01-13T12:09:17.443Z,39.3
2019-01-13T12:10:18.822Z,39.2
2019-01-13T12:11:20.199Z,39.2
2019-01-13T12:12:21.564Z,39.2
2019-01-13T12:13:22.941Z,39.1
2019-01-13T12:14:24.302Z,38.9
2019-01-13T12:15:25.672Z,39.1
2019-01-13T12:16:27.035Z,39.1
2019-01-13T12:17:28.417Z,39.2
2019-01-13T12:18:29.787Z,39.2
2019-01-13T12:19:31.161Z,39.2
2019-01-13T12:20:32.527Z,39.1
2019-01-13T12:21:33.900Z,39.3
2019-01-13T12:22:35.259Z,39.3
2019-01-13T12:23:36.628Z,39.3
2019-01-13T12:24:37.990Z,39.2
2019-01-13T12:25:39.361Z,39.2
2019-01-13T12:26:40.723Z,39.3
2019-01-13T12:27:42.098Z,39.3
2019-01-13T12:28:43.462Z,39.4
2019-01-13T12:29:44.841Z,39.2
2019-01-13T12:30:46.211Z,39.2
2019-01-13T12:31:47.575Z,39.1
2019-01-13T12:32:48.940Z,38.9
2019-01-13T12:33:50.320Z,39.2
2019-01-13T12:34:51.691Z,39.3
2019-01-13T12:35:53.054Z,39.4
2019-01-13T12:36:54.418Z,39.3
2019-01-13T12:37:55.790Z,39.4
2019-01-13T12:38:57.151Z,39.2
2019-01-13T12:39:58.519Z,39.6
2019-01-13T12:41:00.228Z,39.6
2019-01-13T12:42:01.215Z,39.1
2019-01-13T12:43:02.643Z,39.2
2019-01-13T12:44:03.941Z,39.2
2019-01-13T12:45:05.313Z,39.3
2019-01-13T12:46:06.686Z,39.4
2019-01-13T12:47:08.057Z,39.3
2019-01-13T12:48:09.431Z,39.4
2019-01-13T12:49:10.799Z,39.5
2019-01-13T12:50:12.155Z,39.4
2019-01-13T12:51:14.461Z,39.6
2019-01-13T12:52:15.831Z,39.6
2019-01-13T12:53:17.199Z,39.5
2019-01-13T12:54:18.559Z,39.5
2019-01-13T12:55:19.934Z,39.6
2019-01-13T12:56:21.300Z,39.6
2019-01-13T12:57:22.663Z,39.6
2019-01-13T12:58:24.037Z,39.5
2019-01-13T12:59:25.395Z,39.1
2019-01-13T13:00:27.724Z,39.6
2019-01-13T13:01:29.097Z,39.7
2019-01-13T13:02:30.474Z,39.6
2019-01-13T13:03:32.646Z,39.7
2019-01-13T13:04:34.010Z,39.6
2019-01-13T13:05:35.375Z,40.0
2019-01-13T13:06:36.755Z,40.0
2019-01-13T13:07:38.141Z,39.8
2019-01-13T13:08:39.486Z,39.9
2019-01-13T13:09:40.884Z,40.0
2019-01-13T13:10:42.244Z,40.0
2019-01-13T13:11:43.607Z,40.0
2019-01-13T13:12:44.992Z,39.5
2019-01-13T13:13:46.357Z,39.8
2019-01-13T13:14:47.725Z,39.4
2019-01-13T13:15:49.098Z,40.1
2019-01-13T13:16:50.468Z,40.0
2019-01-13T13:17:51.839Z,39.8
2019-01-13T13:18:53.195Z,39.8
2019-01-13T13:19:54.574Z,39.8
2019-01-13T13:20:55.950Z,39.8
2019-01-13T13:21:57.334Z,40.1
2019-01-13T13:22:58.680Z,39.9
2019-01-13T13:24:00.057Z,40.0
2019-01-13T13:25:01.433Z,39.9
2019-01-13T13:26:02.800Z,40.0
2019-01-13T13:27:04.163Z,39.7
2019-01-13T13:28:05.533Z,40.1
2019-01-13T13:29:06.919Z,39.9
2019-01-13T13:30:08.940Z,40.0
2019-01-13T13:31:10.321Z,39.9
2019-01-13T13:32:11.681Z,39.8
2019-01-13T13:33:13.057Z,40.1
2019-01-13T13:34:14.419Z,39.9
2019-01-13T13:35:15.785Z,39.9
2019-01-13T13:36:17.145Z,40.0
2019-01-13T13:37:18.515Z,39.6